Time;durP1;ratioP1;P1;durP2;ratioP2;P2;SDS_P1;SDS_P2;PMS_P1;PMS_P2;Temp;Humidity;BMP_temperature;BMP_pressure;BME280_temperature;BME280_humidity;BME280_pressure;Samples;Min_cycle;Max_cycle;Signal;HPM_P1;HPM_P2
2024/03/11 00:00:37;;;;;;;;;;;10.40;1.00;;;;;;5081658;28;20378;-84
2024/03/11 00:03:02;;;;;;;;;;;10.30;1.00;;;;;;5084774;28;19913;-85
2024/03/11 00:05:28;;;;;;;;;;;10.20;1.00;;;;;;5073173;28;20325;-85
2024/03/11 00:07:55;;;;;;;;;;;10.20;1.00;;;;;;5074185;28;19909;-84
2024/03/11 00:10:23;;;;;;;;;;;10.10;1.00;;;;;;5072034;28;19963;-81
2024/03/11 00:12:53;;;;;;;;;;;10.10;1.00;;;;;;5073723;28;20290;-85
2024/03/11 00:15:23;;;;;;;;;;;10.10;1.00;;;;;;5089296;28;19915;-85
2024/03/11 00:17:55;;;;;;;;;;;10.00;1.00;;;;;;5098291;28;19923;-85
2024/03/11 00:20:21;;;;;;;;;;;10.00;1.00;;;;;;5101483;28;19975;-85
2024/03/11 00:22:48;;;;;;;;;;;10.00;1.00;;;;;;5096014;28;20408;-87
2024/03/11 00:25:14;;;;;;;;;;;10.00;1.00;;;;;;5094929;28;19912;-86
2024/03/11 00:27:39;;;;;;;;;;;10.00;1.00;;;;;;5093223;28;19909;-87
2024/03/11 00:30:08;;;;;;;;;;;9.90;1.00;;;;;;5094448;28;19916;-85
2024/03/11 00:32:35;;;;;;;;;;;9.90;1.00;;;;;;5101816;28;20000;-86
2024/03/11 00:35:04;;;;;;;;;;;9.90;1.00;;;;;;5102485;28;20350;-84
2024/03/11 00:37:29;;;;;;;;;;;9.90;1.00;;;;;;5102314;28;19919;-86
2024/03/11 00:39:55;;;;;;;;;;;9.90;1.00;;;;;;5103209;28;19912;-85
2024/03/11 00:42:20;;;;;;;;;;;9.90;1.00;;;;;;5100506;28;20377;-85
2024/03/11 00:44:50;;;;;;;;;;;9.90;1.00;;;;;;5086343;28;19916;-86
2024/03/11 00:47:18;;;;;;;;;;;9.90;1.00;;;;;;5096255;28;19977;-85
2024/03/11 00:49:44;;;;;;;;;;;9.90;1.00;;;;;;5103984;28;20281;-85
2024/03/11 00:52:10;;;;;;;;;;;9.90;1.00;;;;;;5088769;28;19908;-86
2024/03/11 00:54:36;;;;;;;;;;;9.90;1.00;;;;;;5097405;28;19923;-88
2024/03/11 00:57:01;;;;;;;;;;;9.80;1.00;;;;;;5103480;28;19912;-85
2024/03/11 00:59:28;;;;;;;;;;;9.80;1.00;;;;;;5099913;28;19923;-86
2024/03/11 01:01:53;;;;;;;;;;;9.80;1.00;;;;;;5075958;28;19952;-85
2024/03/11 01:04:21;;;;;;;;;;;9.80;1.00;;;;;;5076662;28;20393;-85
2024/03/11 01:06:46;;;;;;;;;;;9.80;1.00;;;;;;5077195;28;19994;-85
2024/03/11 01:09:12;;;;;;;;;;;9.80;1.00;;;;;;5080687;28;19955;-85
2024/03/11 01:11:37;;;;;;;;;;;9.80;1.00;;;;;;5094749;28;20297;-85
2024/03/11 01:14:04;;;;;;;;;;;9.80;1.00;;;;;;5093388;28;19927;-84
2024/03/11 01:16:29;;;;;;;;;;;9.70;1.00;;;;;;5090306;28;19908;-85
2024/03/11 01:18:56;;;;;;;;;;;9.70;1.00;;;;;;5080774;28;20270;-85
2024/03/11 01:21:21;;;;;;;;;;;9.70;1.00;;;;;;5073324;28;19958;-84
2024/03/11 01:23:47;;;;;;;;;;;9.70;1.00;;;;;;5078903;28;19912;-84
2024/03/11 01:26:13;;;;;;;;;;;9.70;1.00;;;;;;5093538;28;20285;-84
2024/03/11 01:28:38;;;;;;;;;;;9.70;1.00;;;;;;5085941;28;19909;-85
2024/03/11 01:31:04;;;;;;;;;;;9.70;1.00;;;;;;5094442;28;19951;-84
2024/03/11 01:33:30;;;;;;;;;;;9.70;1.00;;;;;;5097565;28;19908;-84
2024/03/11 01:35:56;;;;;;;;;;;9.70;1.00;;;;;;5100044;28;19908;-86
2024/03/11 01:38:21;;;;;;;;;;;9.70;1.00;;;;;;5096333;28;20370;-85
2024/03/11 01:40:47;;;;;;;;;;;9.70;1.00;;;;;;5103291;28;19916;-84
2024/03/11 01:43:14;;;;;;;;;;;9.70;1.00;;;;;;5103372;28;19908;-85
2024/03/11 01:45:40;;;;;;;;;;;9.80;1.00;;;;;;5101700;28;20297;-86
2024/03/11 01:48:07;;;;;;;;;;;9.80;1.00;;;;;;5101973;28;19940;-85
2024/03/11 01:50:36;;;;;;;;;;;9.70;1.00;;;;;;5096737;28;19970;-85
2024/03/11 01:53:03;;;;;;;;;;;9.70;1.00;;;;;;5100348;28;19916;-85
2024/03/11 01:55:30;;;;;;;;;;;9.70;2.00;;;;;;5083987;28;19909;-85
2024/03/11 01:57:56;;;;;;;;;;;9.70;4.50;;;;;;5095666;28;19908;-85
2024/03/11 02:00:22;;;;;;;;;;;9.70;7.40;;;;;;5099043;28;19916;-86
2024/03/11 02:02:48;;;;;;;;;;;9.70;10.10;;;;;;5106064;28;20335;-87
2024/03/11 02:05:14;;;;;;;;;;;9.70;12.90;;;;;;5097900;28;19940;-87
2024/03/11 02:07:46;;;;;;;;;;;9.70;16.10;;;;;;5107447;28;20416;-85
2024/03/11 02:10:14;;;;;;;;;;;9.70;18.00;;;;;;5096976;28;19942;-85
2024/03/11 02:12:40;;;;;;;;;;;9.70;18.90;;;;;;5106630;28;20293;-87
2024/03/11 02:15:10;;;;;;;;;;;9.70;21.30;;;;;;5106444;28;19919;-85
2024/03/11 02:17:39;;;;;;;;;;;9.70;23.20;;;;;;5090215;28;19938;-86
2024/03/11 02:20:15;;;;;;;;;;;9.70;24.70;;;;;;5097249;28;19920;-86
2024/03/11 02:22:47;;;;;;;;;;;9.70;25.50;;;;;;5096129;28;19908;-86
2024/03/11 02:25:14;;;;;;;;;;;9.70;23.70;;;;;;5078700;28;19939;-86
2024/03/11 02:27:40;;;;;;;;;;;9.70;23.60;;;;;;5086457;28;19909;-86
2024/03/11 02:30:07;;;;;;;;;;;9.80;22.90;;;;;;5086984;28;19920;-87
2024/03/11 02:32:33;;;;;;;;;;;9.80;23.50;;;;;;5082691;28;19920;-85
2024/03/11 02:34:59;;;;;;;;;;;9.70;20.40;;;;;;5094934;28;19912;-84
2024/03/11 02:37:24;;;;;;;;;;;9.70;19.50;;;;;;5106673;28;19930;-86
2024/03/11 02:39:51;;;;;;;;;;;9.70;19.60;;;;;;5107035;28;19916;-86
2024/03/11 02:42:16;;;;;;;;;;;9.70;20.00;;;;;;5106974;28;19967;-86
2024/03/11 02:44:42;;;;;;;;;;;9.70;22.40;;;;;;5097122;28;19975;-86
2024/03/11 02:47:08;;;;;;;;;;;9.70;24.30;;;;;;5086132;28;19921;-87
2024/03/11 02:49:33;;;;;;;;;;;9.70;24.70;;;;;;5073981;28;19954;-84
2024/03/11 02:51:59;;;;;;;;;;;9.70;25.50;;;;;;5088730;28;19909;-85
2024/03/11 02:54:26;;;;;;;;;;;9.70;25.10;;;;;;5087879;28;19936;-86
2024/03/11 02:56:52;;;;;;;;;;;9.70;25.80;;;;;;5082510;28;19908;-85
2024/03/11 02:59:18;;;;;;;;;;;9.70;27.00;;;;;;5082106;28;19916;-85
2024/03/11 03:01:44;;;;;;;;;;;9.70;27.30;;;;;;5082476;28;19931;-85
2024/03/11 03:04:10;;;;;;;;;;;9.60;29.20;;;;;;5083046;28;20359;-85
2024/03/11 03:06:35;;;;;;;;;;;9.60;31.10;;;;;;5084019;28;19919;-85
2024/03/11 03:09:01;;;;;;;;;;;9.60;33.90;;;;;;5091763;28;19946;-85
2024/03/11 03:11:26;;;;;;;;;;;9.50;37.70;;;;;;5083844;28;19991;-85
2024/03/11 03:13:52;;;;;;;;;;;9.50;42.20;;;;;;5089827;28;19912;-86
2024/03/11 03:16:17;;;;;;;;;;;9.50;45.20;;;;;;5106549;28;19942;-85
2024/03/11 03:18:43;;;;;;;;;;;9.50;46.90;;;;;;5103389;28;19912;-86
2024/03/11 03:21:09;;;;;;;;;;;9.50;48.10;;;;;;5101380;28;19919;-86
2024/03/11 03:23:34;;;;;;;;;;;9.50;50.60;;;;;;5089409;28;20371;-85
2024/03/11 03:26:00;;;;;;;;;;;9.50;51.70;;;;;;5080391;28;20023;-85
2024/03/11 03:28:25;;;;;;;;;;;9.50;51.00;;;;;;5080021;28;19920;-85
2024/03/11 03:30:53;;;;;;;;;;;9.50;52.90;;;;;;5082078;28;20017;-86
2024/03/11 03:33:19;;;;;;;;;;;9.50;57.00;;;;;;5091449;28;19912;-87
2024/03/11 03:35:45;;;;;;;;;;;9.50;58.50;;;;;;5106535;28;19951;-86
2024/03/11 03:38:10;;;;;;;;;;;9.50;59.20;;;;;;5098253;28;19912;-84
2024/03/11 03:40:36;;;;;;;;;;;9.50;59.70;;;;;;5101125;28;19920;-86
2024/03/11 03:43:03;;;;;;;;;;;9.50;60.50;;;;;;5094515;28;20410;-84
2024/03/11 03:45:29;;;;;;;;;;;9.40;60.20;;;;;;5105063;28;19908;-87
2024/03/11 03:47:54;;;;;;;;;;;9.40;59.80;;;;;;5103379;28;19985;-86
2024/03/11 03:50:21;;;;;;;;;;;9.40;59.50;;;;;;5085605;28;19909;-87
2024/03/11 03:52:47;;;;;;;;;;;9.40;60.00;;;;;;5093588;28;19908;-85
2024/03/11 03:55:12;;;;;;;;;;;9.40;61.20;;;;;;5087522;28;19908;-86
2024/03/11 03:57:38;;;;;;;;;;;9.40;58.10;;;;;;5086297;28;19912;-86
2024/03/11 04:00:05;;;;;;;;;;;9.30;60.40;;;;;;5085645;28;19995;-88
2024/03/11 04:02:31;;;;;;;;;;;9.30;65.30;;;;;;5086931;28;19908;-85
2024/03/11 04:05:02;;;;;;;;;;;9.30;70.70;;;;;;5083691;28;20415;-86
2024/03/11 04:07:28;;;;;;;;;;;9.30;75.00;;;;;;5085853;28;19915;-86
2024/03/11 04:09:54;;;;;;;;;;;9.30;76.30;;;;;;5084562;28;19972;-86
2024/03/11 04:12:20;;;;;;;;;;;9.30;71.20;;;;;;5106265;28;19916;-85
2024/03/11 04:14:45;;;;;;;;;;;9.20;66.60;;;;;;5105955;28;19944;-86
2024/03/11 04:17:12;;;;;;;;;;;9.30;66.20;;;;;;5106850;28;19908;-86
2024/03/11 04:19:39;;;;;;;;;;;9.20;66.40;;;;;;5100001;28;19924;-85
2024/03/11 04:22:04;;;;;;;;;;;9.20;66.80;;;;;;5084635;28;19975;-85
2024/03/11 04:24:31;;;;;;;;;;;9.30;67.20;;;;;;5097524;28;20409;-86
2024/03/11 04:26:59;;;;;;;;;;;9.30;64.20;;;;;;5094670;28;19892;-86
2024/03/11 04:29:25;;;;;;;;;;;9.20;59.00;;;;;;5104286;28;19915;-85
2024/03/11 04:31:50;;;;;;;;;;;9.20;56.00;;;;;;5100213;28;19912;-86
2024/03/11 04:34:16;;;;;;;;;;;9.20;54.90;;;;;;5106263;28;19908;-87
2024/03/11 04:36:41;;;;;;;;;;;9.20;53.10;;;;;;5098172;28;19913;-84
2024/03/11 04:39:07;;;;;;;;;;;9.20;52.60;;;;;;5089639;28;20277;-85
2024/03/11 04:41:35;;;;;;;;;;;9.20;50.80;;;;;;5097563;28;19920;-84
2024/03/11 04:44:01;;;;;;;;;;;9.20;48.30;;;;;;5096470;28;19975;-84
2024/03/11 04:46:27;;;;;;;;;;;9.20;47.80;;;;;;5095706;28;20398;-85
2024/03/11 04:48:52;;;;;;;;;;;9.20;46.80;;;;;;5097205;28;20382;-86
2024/03/11 04:51:18;;;;;;;;;;;9.10;43.60;;;;;;5081238;28;19956;-85
2024/03/11 04:53:44;;;;;;;;;;;9.10;45.10;;;;;;5080878;28;19915;-85
2024/03/11 04:56:09;;;;;;;;;;;9.10;44.30;;;;;;5076575;28;19962;-83
2024/03/11 04:58:37;;;;;;;;;;;9.10;43.80;;;;;;5076854;28;20369;-85
2024/03/11 05:01:05;;;;;;;;;;;9.10;43.40;;;;;;5083795;28;19912;-87
2024/03/11 05:03:30;;;;;;;;;;;9.00;43.60;;;;;;5102221;28;19944;-86
2024/03/11 05:05:56;;;;;;;;;;;9.00;44.80;;;;;;5096215;28;19938;-85
2024/03/11 05:08:21;;;;;;;;;;;9.00;46.90;;;;;;5104046;28;19979;-88
2024/03/11 05:10:47;;;;;;;;;;;9.00;48.10;;;;;;5103015;28;19961;-85
2024/03/11 05:13:14;;;;;;;;;;;9.00;49.60;;;;;;5103185;28;19947;-86
2024/03/11 05:15:43;;;;;;;;;;;9.00;48.90;;;;;;5088014;28;19916;-86
2024/03/11 05:18:09;;;;;;;;;;;9.00;51.00;;;;;;5091339;28;19908;-85
2024/03/11 05:20:35;;;;;;;;;;;9.00;51.80;;;;;;5098828;28;19916;-87
2024/03/11 05:23:00;;;;;;;;;;;9.00;52.30;;;;;;5092530;28;20294;-86
2024/03/11 05:25:26;;;;;;;;;;;9.00;53.70;;;;;;5101781;28;19976;-85
2024/03/11 05:27:51;;;;;;;;;;;9.00;54.30;;;;;;5083758;28;20519;-85
2024/03/11 05:30:19;;;;;;;;;;;9.00;54.70;;;;;;5095235;28;19930;-85
2024/03/11 05:32:45;;;;;;;;;;;9.00;55.30;;;;;;5088835;28;19923;-86
2024/03/11 05:35:11;;;;;;;;;;;9.10;55.30;;;;;;5102019;28;19908;-87
2024/03/11 05:37:36;;;;;;;;;;;9.00;54.00;;;;;;5095167;28;19995;-86
2024/03/11 05:40:05;;;;;;;;;;;9.10;54.50;;;;;;5091225;28;19938;-85
2024/03/11 05:42:34;;;;;;;;;;;9.10;51.90;;;;;;5087974;28;19958;-86
2024/03/11 05:44:59;;;;;;;;;;;9.10;49.30;;;;;;5108175;22;19925;-85
2024/03/11 05:47:25;;;;;;;;;;;9.10;50.20;;;;;;5078689;28;19919;-85
2024/03/11 05:49:52;;;;;;;;;;;9.10;51.40;;;;;;5057556;28;20307;-85
2024/03/11 05:52:20;;;;;;;;;;;9.10;50.50;;;;;;5058623;28;19963;-85
2024/03/11 05:54:50;;;;;;;;;;;9.10;46.10;;;;;;5051596;28;19913;-84
2024/03/11 05:57:22;;;;;;;;;;;9.10;45.70;;;;;;5072239;28;19954;-85
2024/03/11 05:59:49;;;;;;;;;;;9.10;44.80;;;;;;5063185;28;19937;-85
2024/03/11 06:02:16;;;;;;;;;;;9.10;40.50;;;;;;5069820;28;19916;-85
2024/03/11 06:04:42;;;;;;;;;;;9.10;38.10;;;;;;5073991;28;19970;-86
2024/03/11 06:07:07;;;;;;;;;;;9.10;36.30;;;;;;5072071;28;20386;-86
2024/03/11 06:09:35;;;;;;;;;;;9.10;33.80;;;;;;5068500;28;19920;-86
2024/03/11 06:12:01;;;;;;;;;;;9.10;32.10;;;;;;5070883;28;19908;-85
2024/03/11 06:14:26;;;;;;;;;;;9.10;34.20;;;;;;5068916;28;19913;-86
2024/03/11 06:16:52;;;;;;;;;;;9.10;33.60;;;;;;5070899;28;19952;-85
2024/03/11 06:19:17;;;;;;;;;;;9.10;33.60;;;;;;5072261;28;19915;-85
2024/03/11 06:21:43;;;;;;;;;;;9.20;35.50;;;;;;5062142;28;19996;-84
2024/03/11 06:24:09;;;;;;;;;;;9.20;34.80;;;;;;5063467;28;19908;-84
2024/03/11 06:26:35;;;;;;;;;;;9.20;32.00;;;;;;5056932;28;20373;-85
2024/03/11 06:29:02;;;;;;;;;;;9.20;30.30;;;;;;5063104;28;19913;-85
2024/03/11 06:31:28;;;;;;;;;;;9.20;28.10;;;;;;5077106;28;19908;-85
2024/03/11 06:33:55;;;;;;;;;;;9.20;27.60;;;;;;5074736;28;20374;-85
2024/03/11 06:36:21;;;;;;;;;;;9.20;26.70;;;;;;5065615;28;19917;-84
2024/03/11 06:38:48;;;;;;;;;;;9.20;26.10;;;;;;5051579;28;20366;-85
2024/03/11 06:41:19;;;;;;;;;;;9.30;24.40;;;;;;5054777;28;20010;-85
2024/03/11 06:43:45;;;;;;;;;;;9.30;21.10;;;;;;5061606;28;20412;-86
2024/03/11 06:46:15;;;;;;;;;;;9.30;20.50;;;;;;5057408;28;20360;-84
2024/03/11 06:48:50;;;;;;;;;;;9.40;19.90;;;;;;5055593;28;19909;-87
2024/03/11 06:51:15;;;;;;;;;;;9.40;16.80;;;;;;5055778;28;19916;-84
2024/03/11 06:53:40;;;;;;;;;;;9.40;12.40;;;;;;5059802;28;19916;-85
2024/03/11 06:56:11;;;;;;;;;;;9.40;8.80;;;;;;5056205;28;20011;-85
2024/03/11 06:58:41;;;;;;;;;;;9.40;8.00;;;;;;5056132;28;19999;-85
2024/03/11 07:01:07;;;;;;;;;;;9.50;4.60;;;;;;5068668;28;19954;-84
2024/03/11 07:03:36;;;;;;;;;;;9.50;9.40;;;;;;5062464;28;19913;-85
2024/03/11 07:06:02;;;;;;;;;;;9.60;9.00;;;;;;5060583;28;19916;-85
2024/03/11 07:08:28;;;;;;;;;;;9.70;3.50;;;;;;5069713;28;19951;-85
2024/03/11 07:10:55;;;;;;;;;;;9.70;1.00;;;;;;5068577;28;19913;-85
2024/03/11 07:13:20;;;;;;;;;;;9.80;1.00;;;;;;5061145;28;19927;-84
2024/03/11 07:15:46;;;;;;;;;;;9.80;1.00;;;;;;5062606;28;19938;-85
2024/03/11 07:18:12;;;;;;;;;;;9.90;1.00;;;;;;5059639;28;19916;-84
2024/03/11 07:20:38;;;;;;;;;;;9.90;1.00;;;;;;5054009;28;19916;-85
2024/03/11 07:23:03;;;;;;;;;;;10.00;1.00;;;;;;5053881;28;19963;-84
2024/03/11 07:25:29;;;;;;;;;;;10.00;1.00;;;;;;5056287;28;19913;-85
2024/03/11 07:27:54;;;;;;;;;;;10.00;1.00;;;;;;5068221;28;19913;-85
2024/03/11 07:30:22;;;;;;;;;;;10.00;1.00;;;;;;5068592;28;20294;-84
2024/03/11 07:33:04;;;;;;;;;;;10.00;1.00;;;;;;5069273;28;19912;-83
2024/03/11 07:35:55;;;;;;;;;;;10.00;1.00;;;;;;5061741;28;20267;-85
2024/03/11 07:38:23;;;;;;;;;;;10.00;1.00;;;;;;5066231;28;19917;-84
2024/03/11 07:40:49;;;;;;;;;;;10.00;1.00;;;;;;5062827;28;19924;-85
2024/03/11 07:43:15;;;;;;;;;;;10.00;1.00;;;;;;5063687;28;20303;-85
2024/03/11 07:45:40;;;;;;;;;;;10.00;1.00;;;;;;5067499;28;20390;-85
2024/03/11 07:48:09;;;;;;;;;;;9.90;1.00;;;;;;5054602;28;19916;-85
2024/03/11 07:50:35;;;;;;;;;;;9.90;1.00;;;;;;5053369;28;19909;-86
2024/03/11 07:53:01;;;;;;;;;;;9.90;1.00;;;;;;5055487;28;20336;-85
2024/03/11 07:55:28;;;;;;;;;;;9.80;1.00;;;;;;5062092;28;19909;-85
2024/03/11 07:57:54;;;;;;;;;;;9.70;1.00;;;;;;5054788;28;19955;-85
2024/03/11 08:00:29;;;;;;;;;;;9.70;1.00;;;;;;5053728;28;19917;-85
2024/03/11 08:02:55;;;;;;;;;;;9.60;1.00;;;;;;5055814;28;19916;-85
2024/03/11 08:05:22;;;;;;;;;;;9.60;1.00;;;;;;5055506;28;19916;-85
2024/03/11 08:07:49;;;;;;;;;;;9.60;1.00;;;;;;5056256;28;19909;-84
2024/03/11 08:10:15;;;;;;;;;;;9.60;1.00;;;;;;5056869;28;19909;-85
2024/03/11 08:12:44;;;;;;;;;;;9.60;1.00;;;;;;5054288;28;19913;-86
2024/03/11 08:15:12;;;;;;;;;;;9.70;1.00;;;;;;5058379;28;19962;-85
2024/03/11 08:17:39;;;;;;;;;;;9.80;1.00;;;;;;5064331;28;19917;-85
2024/03/11 08:20:08;;;;;;;;;;;9.70;1.00;;;;;;5064065;28;19978;-85
2024/03/11 08:22:37;;;;;;;;;;;9.70;1.00;;;;;;5058804;28;19913;-85
2024/03/11 08:25:07;;;;;;;;;;;9.70;1.00;;;;;;5062329;28;19913;-85
2024/03/11 08:27:33;;;;;;;;;;;9.70;1.00;;;;;;5075115;28;19915;-84
2024/03/11 08:30:01;;;;;;;;;;;9.60;1.00;;;;;;5060571;28;19960;-85
2024/03/11 08:32:27;;;;;;;;;;;9.60;1.00;;;;;;5066123;28;20069;-84
2024/03/11 08:34:55;;;;;;;;;;;9.60;1.00;;;;;;5069686;28;19955;-85
2024/03/11 08:37:21;;;;;;;;;;;9.60;1.00;;;;;;5056415;28;19913;-85
2024/03/11 08:39:49;;;;;;;;;;;9.60;1.00;;;;;;5047546;28;19944;-85
2024/03/11 08:42:14;;;;;;;;;;;9.60;1.00;;;;;;5056919;28;19912;-84
2024/03/11 08:44:43;;;;;;;;;;;9.60;1.00;;;;;;5057826;28;20398;-85
2024/03/11 08:47:11;;;;;;;;;;;9.60;1.00;;;;;;5049695;28;19916;-85
2024/03/11 08:49:37;;;;;;;;;;;9.60;1.00;;;;;;5063338;28;19939;-86
2024/03/11 08:52:03;;;;;;;;;;;9.60;1.00;;;;;;5067230;28;19915;-85
2024/03/11 08:54:28;;;;;;;;;;;9.60;1.00;;;;;;5053227;28;20285;-85
2024/03/11 08:56:56;;;;;;;;;;;9.70;1.00;;;;;;5046303;28;19931;-86
2024/03/11 08:59:22;;;;;;;;;;;9.70;1.00;;;;;;5050382;28;19944;-85
2024/03/11 09:01:49;;;;;;;;;;;9.70;1.00;;;;;;5061120;28;19943;-85
2024/03/11 09:04:15;;;;;;;;;;;9.70;1.00;;;;;;5052249;28;19913;-84
2024/03/11 09:06:43;;;;;;;;;;;9.80;1.00;;;;;;5064134;28;19916;-84
2024/03/11 09:09:09;;;;;;;;;;;9.80;1.00;;;;;;5053965;28;19920;-85
2024/03/11 09:11:34;;;;;;;;;;;9.80;1.00;;;;;;5065722;28;19909;-85
2024/03/11 09:14:00;;;;;;;;;;;9.80;1.00;;;;;;5049253;28;19909;-86
2024/03/11 09:16:27;;;;;;;;;;;9.80;1.00;;;;;;5052901;28;20012;-85
2024/03/11 09:18:53;;;;;;;;;;;9.80;1.00;;;;;;5043316;28;19935;-86
2024/03/11 09:21:21;;;;;;;;;;;9.80;1.00;;;;;;5054529;28;19923;-86
2024/03/11 09:23:47;;;;;;;;;;;9.80;1.00;;;;;;5058170;28;20352;-86
2024/03/11 09:26:12;;;;;;;;;;;9.80;1.00;;;;;;5054633;28;19912;-86
2024/03/11 09:28:38;;;;;;;;;;;9.80;1.00;;;;;;5062744;28;19924;-85
2024/03/11 09:31:04;;;;;;;;;;;9.70;1.00;;;;;;5053296;28;20067;-84
2024/03/11 09:33:29;;;;;;;;;;;9.70;1.00;;;;;;5058805;28;19913;-84
2024/03/11 09:35:55;;;;;;;;;;;9.70;1.00;;;;;;5052025;28;19913;-85
2024/03/11 09:38:21;;;;;;;;;;;9.60;1.00;;;;;;5062058;28;19917;-83
2024/03/11 09:40:47;;;;;;;;;;;9.60;1.00;;;;;;5060684;28;19924;-85
2024/03/11 09:43:17;;;;;;;;;;;9.60;1.00;;;;;;5062608;28;19912;-85
2024/03/11 09:45:43;;;;;;;;;;;9.60;1.00;;;;;;5068177;28;20390;-85
2024/03/11 09:48:09;;;;;;;;;;;9.60;1.00;;;;;;5047576;28;19935;-85
2024/03/11 09:50:37;;;;;;;;;;;9.60;1.00;;;;;;5055761;28;19908;-85
2024/03/11 09:53:18;;;;;;;;;;;9.60;1.00;;;;;;5054932;28;19913;-84
2024/03/11 09:55:44;;;;;;;;;;;9.60;1.00;;;;;;5064189;28;19931;-86
2024/03/11 09:58:11;;;;;;;;;;;9.60;1.00;;;;;;5066481;28;19909;-85
2024/03/11 10:00:49;;;;;;;;;;;9.60;1.00;;;;;;5069878;28;20007;-85
2024/03/11 10:03:16;;;;;;;;;;;9.70;1.00;;;;;;5067595;28;19944;-86
2024/03/11 10:05:44;;;;;;;;;;;9.70;1.00;;;;;;5061713;28;19920;-85
2024/03/11 10:08:10;;;;;;;;;;;9.70;1.00;;;;;;5060810;28;19913;-85
2024/03/11 10:10:36;;;;;;;;;;;9.80;1.00;;;;;;5057097;28;20389;-85
2024/03/11 10:13:04;;;;;;;;;;;9.90;1.00;;;;;;5061993;28;20362;-85
2024/03/11 10:15:32;;;;;;;;;;;9.90;1.00;;;;;;5056666;28;19913;-84
2024/03/11 10:18:01;;;;;;;;;;;9.90;1.00;;;;;;5060591;28;19935;-85
2024/03/11 10:20:27;;;;;;;;;;;10.00;1.00;;;;;;5068853;28;19920;-84
2024/03/11 10:23:03;;;;;;;;;;;10.00;1.00;;;;;;5055726;28;19908;-85
2024/03/11 10:25:31;;;;;;;;;;;10.10;1.00;;;;;;5065528;28;20362;-84
2024/03/11 10:27:57;;;;;;;;;;;10.10;1.00;;;;;;5066718;28;19916;-85
2024/03/11 10:30:23;;;;;;;;;;;10.20;1.00;;;;;;5064469;28;19913;-85
2024/03/11 10:32:55;;;;;;;;;;;10.30;1.00;;;;;;5062789;28;19992;-86
2024/03/11 10:35:27;;;;;;;;;;;10.30;1.00;;;;;;5068476;28;19948;-86
2024/03/11 10:38:13;;;;;;;;;;;10.40;1.00;;;;;;5054663;28;19915;-85
2024/03/11 10:40:44;;;;;;;;;;;10.40;1.00;;;;;;5056954;28;19917;-86
2024/03/11 10:43:24;;;;;;;;;;;10.50;1.00;;;;;;5065382;28;19909;-84
2024/03/11 10:45:49;;;;;;;;;;;10.50;1.00;;;;;;5057119;28;20011;-84
2024/03/11 10:48:15;;;;;;;;;;;10.50;1.00;;;;;;5060252;28;20001;-85
2024/03/11 10:50:41;;;;;;;;;;;10.40;1.00;;;;;;5058874;28;20011;-85
2024/03/11 10:53:09;;;;;;;;;;;10.40;1.00;;;;;;5054071;28;19916;-85
2024/03/11 10:55:34;;;;;;;;;;;10.50;1.00;;;;;;5056147;28;19913;-84
2024/03/11 10:58:03;;;;;;;;;;;10.50;1.00;;;;;;5066634;28;19915;-86
2024/03/11 11:00:34;;;;;;;;;;;10.40;1.00;;;;;;5057847;28;19923;-85
2024/03/11 11:02:59;;;;;;;;;;;10.40;1.00;;;;;;5044391;28;19959;-85
2024/03/11 11:05:32;;;;;;;;;;;10.30;1.00;;;;;;5048252;28;19921;-85
2024/03/11 11:07:59;;;;;;;;;;;10.30;1.00;;;;;;5048204;28;19909;-85
2024/03/11 11:10:29;;;;;;;;;;;10.30;1.00;;;;;;5060168;28;19913;-85
2024/03/11 11:12:55;;;;;;;;;;;10.30;1.00;;;;;;5050238;28;19934;-85
2024/03/11 11:15:21;;;;;;;;;;;10.40;1.00;;;;;;5066627;28;20413;-85
2024/03/11 11:17:48;;;;;;;;;;;10.40;1.00;;;;;;5060163;28;19913;-85
2024/03/11 11:20:29;;;;;;;;;;;10.50;1.00;;;;;;5059184;28;19924;-84
2024/03/11 11:22:59;;;;;;;;;;;10.50;1.00;;;;;;5062156;28;19920;-84
2024/03/11 11:25:51;;;;;;;;;;;10.50;1.00;;;;;;5054238;28;20290;-83
2024/03/11 11:28:26;;;;;;;;;;;10.40;1.00;;;;;;5062682;28;19913;-85
2024/03/11 11:31:14;;;;;;;;;;;10.40;1.00;;;;;;5069331;28;19958;-85
2024/03/11 11:33:53;;;;;;;;;;;10.40;1.00;;;;;;5053632;28;19909;-85
2024/03/11 11:36:31;;;;;;;;;;;10.50;1.00;;;;;;5064988;28;19908;-85
2024/03/11 11:39:17;;;;;;;;;;;10.50;1.00;;;;;;5056514;28;20321;-86
2024/03/11 11:41:46;;;;;;;;;;;10.50;1.00;;;;;;5063294;28;19917;-85
2024/03/11 11:44:36;;;;;;;;;;;10.50;1.00;;;;;;5067064;28;19917;-84
2024/03/11 11:47:01;;;;;;;;;;;10.40;1.00;;;;;;5037441;28;20435;-83
2024/03/11 11:49:31;;;;;;;;;;;10.40;1.00;;;;;;5068143;28;19908;-85
2024/03/11 11:51:57;;;;;;;;;;;10.40;1.00;;;;;;5072663;28;19967;-85
2024/03/11 11:54:26;;;;;;;;;;;10.40;1.00;;;;;;5054430;28;20378;-86
2024/03/11 11:56:58;;;;;;;;;;;10.40;1.00;;;;;;5054542;28;19908;-85
2024/03/11 11:59:24;;;;;;;;;;;10.30;1.00;;;;;;5065928;28;19931;-85
2024/03/11 12:01:50;;;;;;;;;;;10.30;1.00;;;;;;5065715;28;19909;-86
2024/03/11 12:04:16;;;;;;;;;;;10.20;1.00;;;;;;5053290;28;20404;-85
2024/03/11 12:06:42;;;;;;;;;;;10.20;1.00;;;;;;5065384;28;20413;-85
2024/03/11 12:09:15;;;;;;;;;;;10.10;1.00;;;;;;5060695;28;20417;-83
2024/03/11 12:11:49;;;;;;;;;;;10.10;1.00;;;;;;5066517;28;19913;-85
2024/03/11 12:14:15;;;;;;;;;;;10.00;1.00;;;;;;5062787;28;19908;-85
2024/03/11 12:16:41;;;;;;;;;;;10.00;1.00;;;;;;5068527;28;19913;-85
2024/03/11 12:19:09;;;;;;;;;;;10.00;1.00;;;;;;5055282;28;19913;-86
2024/03/11 12:21:41;;;;;;;;;;;10.30;1.00;;;;;;5055794;28;19924;-85
2024/03/11 12:24:11;;;;;;;;;;;10.40;1.00;;;;;;5067283;28;19917;-84
2024/03/11 12:26:38;;;;;;;;;;;10.70;1.00;;;;;;5056346;28;19955;-84
2024/03/11 12:29:05;;;;;;;;;;;10.90;1.00;;;;;;5063344;28;20290;-84
2024/03/11 12:31:32;;;;;;;;;;;11.00;1.00;;;;;;5062340;28;20374;-85
2024/03/11 12:34:13;;;;;;;;;;;11.20;1.00;;;;;;5064239;28;19909;-86
2024/03/11 12:36:48;;;;;;;;;;;11.40;1.00;;;;;;5056031;28;19913;-85
2024/03/11 12:39:25;;;;;;;;;;;11.60;1.00;;;;;;5055317;28;19919;-86
2024/03/11 12:41:51;;;;;;;;;;;11.80;1.00;;;;;;5064601;28;19932;-86
2024/03/11 12:44:18;;;;;;;;;;;11.90;1.00;;;;;;5056311;28;20000;-86
2024/03/11 12:46:44;;;;;;;;;;;12.00;99.90;;;;;;5060860;28;19916;-84
2024/03/11 12:49:11;;;;;;;;;;;12.10;99.90;;;;;;5065530;28;20283;-85
2024/03/11 12:51:40;;;;;;;;;;;12.20;99.90;;;;;;5057586;28;20306;-86
2024/03/11 12:54:18;;;;;;;;;;;12.20;99.90;;;;;;5042112;28;20024;-87
2024/03/11 12:56:47;;;;;;;;;;;12.20;99.90;;;;;;5047676;28;19920;-85
2024/03/11 12:59:13;;;;;;;;;;;12.10;99.90;;;;;;5055055;28;19963;-86
2024/03/11 13:01:42;;;;;;;;;;;11.90;99.90;;;;;;5064179;28;19977;-87
2024/03/11 13:04:23;;;;;;;;;;;11.80;99.90;;;;;;5065898;28;19909;-86
2024/03/11 13:07:01;;;;;;;;;;;11.70;99.90;;;;;;5053092;28;19928;-86
2024/03/11 13:09:27;;;;;;;;;;;11.70;99.90;;;;;;5050779;28;20302;-85
2024/03/11 13:11:53;;;;;;;;;;;11.60;99.90;;;;;;5052978;28;20032;-85
2024/03/11 13:14:19;;;;;;;;;;;11.50;99.90;;;;;;5054921;28;19919;-84
2024/03/11 13:16:44;;;;;;;;;;;11.50;1.00;;;;;;5054899;28;19948;-84
2024/03/11 13:19:12;;;;;;;;;;;11.50;1.00;;;;;;5046434;28;19916;-84
2024/03/11 13:21:38;;;;;;;;;;;11.40;99.90;;;;;;5054770;28;20358;-85
2024/03/11 13:24:04;;;;;;;;;;;11.30;1.00;;;;;;5064853;28;19921;-85
2024/03/11 13:26:29;;;;;;;;;;;11.20;1.00;;;;;;5055926;28;19913;-85
2024/03/11 13:28:55;;;;;;;;;;;11.10;1.00;;;;;;5062385;28;19908;-84
2024/03/11 13:31:20;;;;;;;;;;;11.00;1.00;;;;;;5056479;28;19913;-84
2024/03/11 13:33:46;;;;;;;;;;;10.90;1.00;;;;;;5056304;28;19913;-85
2024/03/11 13:36:12;;;;;;;;;;;10.70;1.00;;;;;;5060196;28;19913;-85
2024/03/11 13:38:37;;;;;;;;;;;10.60;1.00;;;;;;5049595;28;20271;-85
2024/03/11 13:41:03;;;;;;;;;;;10.50;1.00;;;;;;5036675;28;19917;-86
2024/03/11 13:43:32;;;;;;;;;;;10.50;1.00;;;;;;5045720;28;20054;-87
2024/03/11 13:45:57;;;;;;;;;;;10.50;1.00;;;;;;5055481;28;19913;-85
2024/03/11 13:48:24;;;;;;;;;;;10.40;1.00;;;;;;5062327;28;19920;-85
2024/03/11 13:50:50;;;;;;;;;;;10.40;1.00;;;;;;5051481;28;20259;-84
2024/03/11 13:53:16;;;;;;;;;;;10.40;1.00;;;;;;5057810;28;19913;-85
2024/03/11 13:55:43;;;;;;;;;;;10.30;1.00;;;;;;5065035;28;19922;-83
2024/03/11 13:58:12;;;;;;;;;;;10.40;1.00;;;;;;5056632;28;19909;-84
2024/03/11 14:00:40;;;;;;;;;;;10.40;1.00;;;;;;5066528;28;19913;-86
2024/03/11 14:03:07;;;;;;;;;;;10.40;1.00;;;;;;5059590;28;19912;-86
2024/03/11 14:05:34;;;;;;;;;;;10.40;1.00;;;;;;5068581;28;19913;-85
2024/03/11 14:08:00;;;;;;;;;;;10.40;1.00;;;;;;5057949;28;19978;-85
2024/03/11 14:10:25;;;;;;;;;;;10.40;1.00;;;;;;5060490;28;19917;-85
2024/03/11 14:12:51;;;;;;;;;;;10.30;1.00;;;;;;5067255;28;19909;-84
2024/03/11 14:15:17;;;;;;;;;;;10.30;1.00;;;;;;5043307;28;19913;-84
2024/03/11 14:17:43;;;;;;;;;;;10.30;1.00;;;;;;5060905;28;19913;-85
2024/03/11 14:20:24;;;;;;;;;;;10.20;1.00;;;;;;5058831;28;19913;-86
2024/03/11 14:22:50;;;;;;;;;;;10.20;1.00;;;;;;5053539;28;19916;-84
2024/03/11 14:25:16;;;;;;;;;;;10.20;1.00;;;;;;5052202;28;19912;-87
2024/03/11 14:27:46;;;;;;;;;;;10.20;1.00;;;;;;5049327;28;20437;-84
2024/03/11 14:30:16;;;;;;;;;;;10.30;1.00;;;;;;5062769;28;19917;-86
2024/03/11 14:32:43;;;;;;;;;;;10.30;1.00;;;;;;5066105;28;19917;-85
2024/03/11 14:35:09;;;;;;;;;;;10.30;1.00;;;;;;5057202;28;19909;-87